Time;durP1;ratioP1;P1;durP2;ratioP2;P2;SDS_P1;SDS_P2;PMS_P1;PMS_P2;Temp;Humidity;BMP_temperature;BMP_pressure;BME280_temperature;BME280_humidity;BME280_pressure;Samples;Min_cycle;Max_cycle;Signal;HPM_P1;HPM_P2
2022/09/08 00:00:32;;;;;;;8.20;4.20;;;20.00;99.90;;;;;;5092444;28;20044;-80
2022/09/08 00:03:03;;;;;;;4.97;3.25;;;20.00;99.90;;;;;;5092375;28;20028;-80
2022/09/08 00:05:32;;;;;;;7.80;4.10;;;20.00;99.90;;;;;;5092465;28;20107;-80
2022/09/08 00:07:59;;;;;;;6.03;4.10;;;20.10;99.90;;;;;;5092058;28;20035;-80
2022/09/08 00:10:25;;;;;;;6.68;3.90;;;19.90;99.90;;;;;;5092515;28;20036;-80
2022/09/08 00:12:51;;;;;;;4.60;3.60;;;19.90;99.90;;;;;;5092472;28;20040;-80
2022/09/08 00:15:17;;;;;;;6.68;3.90;;;19.80;99.90;;;;;;5092231;28;20496;-80
2022/09/08 00:17:43;;;;;;;6.75;4.18;;;20.00;99.90;;;;;;5092313;28;20026;-80
2022/09/08 00:20:09;;;;;;;6.10;4.47;;;20.00;99.90;;;;;;5091946;28;20032;-79
2022/09/08 00:22:35;;;;;;;3.97;3.53;;;20.20;99.90;;;;;;5092604;28;20028;-80
2022/09/08 00:25:01;;;;;;;4.75;3.60;;;20.20;99.90;;;;;;5092205;28;20024;-80
2022/09/08 00:27:26;;;;;;;5.03;3.80;;;20.10;99.90;;;;;;5091976;28;20502;-80
2022/09/08 00:29:52;;;;;;;6.47;3.70;;;20.20;99.90;;;;;;5092425;28;20078;-80
2022/09/08 00:32:19;;;;;;;5.10;3.67;;;20.20;99.90;;;;;;5091961;28;20572;-80
2022/09/08 00:34:44;;;;;;;6.05;3.70;;;20.10;99.90;;;;;;5091853;28;20080;-80
2022/09/08 00:37:10;;;;;;;6.57;3.67;;;20.10;99.90;;;;;;5092073;28;20110;-80
2022/09/08 00:39:36;;;;;;;3.92;3.28;;;20.30;99.90;;;;;;5095573;28;20073;-80
2022/09/08 00:42:01;;;;;;;4.82;3.40;;;20.00;99.90;;;;;;5096729;28;20039;-80
2022/09/08 00:44:34;;;;;;;7.60;3.78;;;20.20;99.90;;;;;;5096055;28;20027;-80
2022/09/08 00:47:00;;;;;;;4.15;3.67;;;20.10;99.90;;;;;;5096214;28;20436;-80
2022/09/08 00:49:28;;;;;;;4.90;3.75;;;20.20;99.90;;;;;;5096045;28;20028;-80
2022/09/08 00:51:56;;;;;;;4.10;3.70;;;20.10;99.90;;;;;;5095729;28;20021;-79
2022/09/08 00:54:22;;;;;;;5.35;3.42;;;20.30;99.90;;;;;;5095645;28;20066;-80
2022/09/08 00:56:49;;;;;;;5.57;3.60;;;20.20;99.90;;;;;;5096130;28;20548;-80
2022/09/08 00:59:18;;;;;;;4.13;3.53;;;20.10;99.90;;;;;;5095850;28;20020;-80
2022/09/08 01:01:44;;;;;;;6.60;4.07;;;20.10;99.90;;;;;;5095830;28;20040;-80
2022/09/08 01:04:10;;;;;;;5.53;3.35;;;20.10;99.90;;;;;;5095637;28;20027;-79
2022/09/08 01:12:54;;;;;;;4.80;3.40;;;20.20;99.90;;;;;;5033734;28;20092;-80
2022/09/08 01:15:26;;;;;;;4.55;3.70;;;20.30;99.90;;;;;;5033069;28;20117;-80
2022/09/08 01:17:54;;;;;;;6.88;3.70;;;20.30;99.90;;;;;;5033125;28;20485;-80
2022/09/08 01:20:38;;;;;;;5.78;3.78;;;20.20;99.90;;;;;;5032409;28;20030;-80
2022/09/08 01:23:15;;;;;;;5.20;3.20;;;20.20;99.90;;;;;;5032912;28;20497;-80
2022/09/08 01:26:11;;;;;;;5.85;3.35;;;20.30;99.90;;;;;;5032886;28;20053;-80
2022/09/08 01:28:51;;;;;;;6.07;3.60;;;19.80;99.90;;;;;;5032892;28;20037;-80
2022/09/08 01:31:19;;;;;;;5.47;3.75;;;19.70;99.90;;;;;;5023885;28;20041;-80
2022/09/08 01:33:45;;;;;;;4.93;3.80;;;19.80;99.90;;;;;;5011729;28;20038;-80
2022/09/08 01:36:13;;;;;;;6.35;3.45;;;19.90;99.90;;;;;;5012080;28;20034;-80
2022/09/08 01:38:40;;;;;;;5.72;3.80;;;19.80;99.90;;;;;;5011892;28;20122;-80
2022/09/08 01:41:06;;;;;;;6.20;3.72;;;19.60;99.90;;;;;;5011090;28;20049;-80
2022/09/08 01:43:32;;;;;;;5.53;3.83;;;19.60;99.90;;;;;;5012145;28;20026;-80
2022/09/08 01:45:58;;;;;;;7.32;3.80;;;19.50;99.90;;;;;;5015142;28;20037;-79
2022/09/08 01:48:24;;;;;;;6.43;3.75;;;19.90;99.90;;;;;;5032636;28;20034;-80
2022/09/08 01:50:50;;;;;;;6.15;3.88;;;20.10;99.90;;;;;;5033905;28;20030;-79
2022/09/08 01:53:16;;;;;;;5.38;3.83;;;20.10;99.90;;;;;;5033368;28;20021;-80
2022/09/08 01:55:43;;;;;;;5.75;3.58;;;20.10;99.90;;;;;;5033565;28;20053;-80
2022/09/08 01:58:09;;;;;;;6.60;3.55;;;20.30;99.90;;;;;;5033273;28;20430;-80
2022/09/08 02:00:35;;;;;;;4.38;3.97;;;20.30;99.90;;;;;;5033433;28;20076;-80
2022/09/08 02:03:00;;;;;;;4.85;3.50;;;20.30;99.90;;;;;;5032954;28;20049;-80
2022/09/08 02:05:26;;;;;;;5.57;3.58;;;20.50;99.90;;;;;;5033389;28;20061;-80
2022/09/08 02:07:52;;;;;;;5.53;3.88;;;20.50;99.90;;;;;;5033167;28;20470;-80
2022/09/08 02:10:17;;;;;;;4.53;3.60;;;20.40;99.90;;;;;;5033176;28;20022;-80
2022/09/08 02:12:43;;;;;;;5.57;3.78;;;20.30;99.90;;;;;;5033475;28;20044;-80
2022/09/08 02:15:09;;;;;;;4.30;3.90;;;20.40;99.90;;;;;;5034660;28;20057;-80
2022/09/08 02:17:35;;;;;;;7.47;3.70;;;20.40;99.90;;;;;;5072759;28;20089;-80
2022/09/08 02:20:00;;;;;;;6.05;4.03;;;20.50;99.90;;;;;;5072898;28;20396;-80
2022/09/08 02:22:26;;;;;;;4.85;4.30;;;20.30;99.90;;;;;;5072826;28;20031;-80
2022/09/08 02:24:52;;;;;;;6.50;3.90;;;20.40;99.90;;;;;;5073135;28;20127;-80
2022/09/08 02:27:18;;;;;;;5.85;4.28;;;20.40;99.90;;;;;;5073094;28;20370;-80
2022/09/08 02:29:44;;;;;;;7.57;3.97;;;20.30;99.90;;;;;;5066818;28;20107;-80
2022/09/08 02:32:10;;;;;;;6.25;4.50;;;20.00;99.90;;;;;;5035532;28;1366052;-80
2022/09/08 02:34:35;;;;;;;6.45;4.20;;;20.10;99.90;;;;;;5093963;28;20040;-80
2022/09/08 02:37:01;;;;;;;6.05;3.90;;;20.30;99.90;;;;;;5093680;28;20553;-80
2022/09/08 02:39:27;;;;;;;7.43;4.10;;;20.20;99.90;;;;;;5094057;28;20024;-80
2022/09/08 02:41:53;;;;;;;5.05;4.30;;;20.20;99.90;;;;;;5094200;28;20032;-80
2022/09/08 02:44:19;;;;;;;5.22;4.45;;;20.40;99.90;;;;;;5093729;28;20089;-80
2022/09/08 02:46:44;;;;;;;6.45;4.10;;;20.40;99.90;;;;;;5093520;28;20400;-80
2022/09/08 02:49:10;;;;;;;5.45;4.38;;;20.60;99.90;;;;;;5075667;28;20032;-80
2022/09/08 02:51:36;;;;;;;6.20;4.65;;;20.50;99.90;;;;;;5075676;28;20400;-80
2022/09/08 02:54:02;;;;;;;5.90;4.60;;;20.60;99.90;;;;;;5093391;28;20028;-80
2022/09/08 02:56:28;;;;;;;4.68;4.18;;;20.70;99.90;;;;;;5093518;28;20055;-80
2022/09/08 02:58:54;;;;;;;5.40;3.55;;;20.60;99.90;;;;;;5093630;28;20028;-80
2022/09/08 03:01:20;;;;;;;6.22;3.67;;;20.40;99.90;;;;;;5092404;28;20133;-80
2022/09/08 03:03:46;;;;;;;6.05;2.70;;;20.50;99.90;;;;;;5093406;28;20016;-80
2022/09/08 03:06:12;;;;;;;4.47;3.45;;;20.00;99.90;;;;;;5093190;28;20444;-80
2022/09/08 03:08:37;;;;;;;3.90;3.22;;;20.20;99.90;;;;;;5093177;28;20405;-80
2022/09/08 03:11:04;;;;;;;5.18;2.65;;;20.30;99.90;;;;;;5093419;28;20446;-80
2022/09/08 03:13:30;;;;;;;3.90;2.72;;;20.10;99.90;;;;;;5093383;28;20034;-80
2022/09/08 03:15:56;;;;;;;5.13;2.70;;;20.00;99.90;;;;;;5092758;28;20039;-80
2022/09/08 03:18:22;;;;;;;5.47;3.08;;;20.00;99.90;;;;;;5093326;28;20059;-80
2022/09/08 03:21:02;;;;;;;5.18;3.25;;;19.90;99.90;;;;;;5092830;28;20043;-80
2022/09/08 03:23:30;;;;;;;6.47;3.20;;;19.80;99.90;;;;;;5092831;28;20028;-80
2022/09/08 03:26:04;;;;;;;6.18;3.05;;;19.80;99.90;;;;;;5093027;28;20107;-80
2022/09/08 03:28:30;;;;;;;4.00;2.80;;;19.70;99.90;;;;;;5092958;28;20031;-80
2022/09/08 03:30:56;;;;;;;5.55;2.90;;;19.60;99.90;;;;;;5092464;28;20131;-80
2022/09/08 03:33:22;;;;;;;5.43;3.33;;;19.70;99.90;;;;;;5092741;28;20064;-78
2022/09/08 03:35:48;;;;;;;7.07;2.70;;;19.60;99.90;;;;;;5092994;28;20036;-80
2022/09/08 03:38:16;;;;;;;6.90;2.90;;;19.50;99.90;;;;;;5074708;28;20028;-80
2022/09/08 03:40:42;;;;;;;4.70;2.70;;;19.60;99.90;;;;;;5093043;28;20081;-80
2022/09/08 03:43:08;;;;;;;4.07;3.20;;;19.50;99.90;;;;;;5092406;28;20028;-80
2022/09/08 03:45:34;;;;;;;5.13;3.20;;;19.40;99.90;;;;;;5092555;28;20168;-80
2022/09/08 03:47:59;;;;;;;4.70;2.90;;;19.50;99.90;;;;;;5092647;28;20027;-80
2022/09/08 03:50:25;;;;;;;4.93;3.00;;;19.50;99.90;;;;;;5092693;28;20031;-80
2022/09/08 03:52:51;;;;;;;5.60;2.90;;;19.50;99.90;;;;;;5074858;28;20653;-80
2022/09/08 03:55:18;;;;;;;6.25;2.90;;;19.40;99.90;;;;;;5092693;28;20028;-80
2022/09/08 03:57:44;;;;;;;7.07;2.90;;;19.30;99.90;;;;;;5092166;28;20020;-80
2022/09/08 04:00:12;;;;;;;3.75;2.90;;;19.20;99.90;;;;;;5092398;28;20047;-80
2022/09/08 04:02:37;;;;;;;7.18;3.13;;;19.40;99.90;;;;;;5074336;28;20468;-80
2022/09/08 04:05:04;;;;;;;9.52;2.63;;;19.30;99.90;;;;;;5092531;28;20042;-80
2022/09/08 04:07:30;;;;;;;4.68;2.90;;;19.30;99.90;;;;;;5092614;28;20042;-80
2022/09/08 04:09:56;;;;;;;4.07;3.00;;;19.30;99.90;;;;;;5092168;28;20089;-80
2022/09/08 04:12:23;;;;;;;5.93;3.25;;;19.30;99.90;;;;;;5091600;28;20488;-80
2022/09/08 04:14:50;;;;;;;7.93;3.40;;;19.10;99.90;;;;;;5092428;28;20114;-80
2022/09/08 04:17:17;;;;;;;6.93;2.85;;;19.20;99.90;;;;;;5091969;28;20028;-80
2022/09/08 04:19:43;;;;;;;3.90;3.00;;;19.00;99.90;;;;;;5092140;28;20537;-80
2022/09/08 04:22:09;;;;;;;5.70;3.15;;;19.00;99.90;;;;;;5092436;28;20480;-80
2022/09/08 04:24:35;;;;;;;3.88;3.13;;;18.90;99.90;;;;;;5092244;28;20024;-80
2022/09/08 04:27:01;;;;;;;4.10;2.90;;;19.00;99.90;;;;;;5091691;28;20097;-80
2022/09/08 04:29:26;;;;;;;4.93;3.00;;;18.80;99.90;;;;;;5092122;28;20020;-80
2022/09/08 04:31:52;;;;;;;6.47;3.17;;;19.00;99.90;;;;;;5091780;28;20051;-79
2022/09/08 04:34:18;;;;;;;5.32;3.17;;;18.90;99.90;;;;;;5091914;28;20032;-80
2022/09/08 04:36:45;;;;;;;4.68;3.40;;;18.80;99.90;;;;;;5091723;28;20122;-80
2022/09/08 04:39:11;;;;;;;4.90;3.40;;;18.70;99.90;;;;;;5092399;28;20027;-80
2022/09/08 04:41:38;;;;;;;4.10;2.83;;;18.90;99.90;;;;;;5091551;28;20080;-80
2022/09/08 04:44:05;;;;;;;5.32;3.10;;;18.90;99.90;;;;;;5092289;28;20412;-81
2022/09/08 04:46:32;;;;;;;7.85;3.53;;;18.90;99.90;;;;;;5091868;28;20047;-80
2022/09/08 04:48:58;;;;;;;6.18;3.60;;;18.80;99.90;;;;;;5091509;28;20028;-80
2022/09/08 04:51:25;;;;;;;4.90;3.60;;;18.60;99.90;;;;;;5092321;28;20470;-80
2022/09/08 04:53:55;;;;;;;5.88;3.70;;;18.80;99.90;;;;;;5092053;28;20008;-80
2022/09/08 04:56:22;;;;;;;5.50;3.70;;;18.70;99.90;;;;;;5091411;28;20484;-80
2022/09/08 04:58:48;;;;;;;4.57;3.47;;;18.50;99.90;;;;;;5092265;28;20017;-81
2022/09/08 05:01:23;;;;;;;8.13;3.90;;;18.50;99.90;;;;;;5091696;28;20557;-80
2022/09/08 05:03:54;;;;;;;4.63;3.92;;;18.50;99.90;;;;;;5091811;28;20032;-80
2022/09/08 05:06:20;;;;;;;5.13;3.70;;;18.50;99.90;;;;;;5091599;28;20032;-81
2022/09/08 05:08:48;;;;;;;4.85;3.47;;;18.50;99.90;;;;;;5092014;28;20021;-81
2022/09/08 05:11:16;;;;;;;6.95;3.90;;;18.50;99.90;;;;;;5091009;28;20035;-81
2022/09/08 05:13:42;;;;;;;5.35;4.00;;;18.50;99.90;;;;;;5091594;28;20047;-81
2022/09/08 05:16:13;;;;;;;5.53;3.85;;;18.60;99.90;;;;;;5091635;28;20048;-81
2022/09/08 05:18:39;;;;;;;6.72;3.80;;;18.50;99.90;;;;;;5091029;28;20392;-81
2022/09/08 05:21:07;;;;;;;7.30;3.72;;;18.50;99.90;;;;;;5091263;28;20089;-81
2022/09/08 05:23:33;;;;;;;4.30;3.40;;;18.40;99.90;;;;;;5091690;28;20044;-81
2022/09/08 05:26:02;;;;;;;5.00;3.70;;;18.30;99.90;;;;;;5094524;28;20056;-81
2022/09/08 05:28:31;;;;;;;6.63;3.63;;;18.40;99.90;;;;;;5095518;28;20402;-81
2022/09/08 05:30:57;;;;;;;5.47;3.80;;;18.40;99.90;;;;;;5095061;28;20087;-81
2022/09/08 05:33:23;;;;;;;6.68;3.92;;;18.30;99.90;;;;;;5095131;28;20514;-81
2022/09/08 05:35:49;;;;;;;6.20;3.78;;;18.30;99.90;;;;;;5095155;28;20081;-81
2022/09/08 05:38:15;;;;;;;7.47;3.38;;;18.30;99.90;;;;;;5094821;28;20023;-81
2022/09/08 05:40:41;;;;;;;7.18;4.20;;;18.20;99.90;;;;;;5094666;28;20040;-81
2022/09/08 05:43:07;;;;;;;5.78;4.15;;;18.10;99.90;;;;;;5094551;28;20404;-81
2022/09/08 05:45:32;;;;;;;6.88;4.60;;;18.20;99.90;;;;;;5094751;28;20028;-81
2022/09/08 05:47:58;;;;;;;5.20;3.90;;;18.10;99.90;;;;;;5094633;28;20480;-81
2022/09/08 05:50:24;;;;;;;7.78;4.22;;;18.10;99.90;;;;;;5094999;28;20035;-81
2022/09/08 05:52:50;;;;;;;8.77;4.32;;;18.00;99.90;;;;;;5095222;28;20027;-81
2022/09/08 05:55:17;;;;;;;6.93;4.38;;;17.90;99.90;;;;;;5094468;28;20122;-81
2022/09/08 05:57:43;;;;;;;4.95;4.15;;;17.90;99.90;;;;;;5094503;28;20576;-81
2022/09/08 06:00:10;;;;;;;7.50;3.90;;;18.10;99.90;;;;;;5094541;28;20090;-81
2022/09/08 06:02:35;;;;;;;5.97;4.18;;;18.00;99.90;;;;;;5094705;28;20399;-81
2022/09/08 06:05:01;;;;;;;5.22;3.72;;;17.90;99.90;;;;;;5095054;28;20024;-81
2022/09/08 06:07:26;;;;;;;10.55;7.32;;;18.00;99.90;;;;;;5094608;28;20541;-81
2022/09/08 06:09:53;;;;;;;12.55;5.18;;;18.00;99.90;;;;;;5094239;28;20553;-81
2022/09/08 06:12:19;;;;;;;8.10;4.28;;;18.00;99.90;;;;;;5094773;28;20028;-81
2022/09/08 06:14:45;;;;;;;5.32;4.05;;;18.00;99.90;;;;;;5094374;28;20050;-81
2022/09/08 06:17:10;;;;;;;8.07;4.47;;;18.00;99.90;;;;;;5094145;28;20040;-81
2022/09/08 06:19:36;;;;;;;6.47;4.32;;;17.90;99.90;;;;;;5094143;28;20104;-80
2022/09/08 06:22:02;;;;;;;4.72;4.18;;;18.00;99.90;;;;;;5093865;28;20047;-81
2022/09/08 06:24:27;;;;;;;6.82;3.75;;;18.20;99.90;;;;;;5093029;28;20060;-81
2022/09/08 06:27:08;;;;;;;6.60;3.90;;;18.30;99.90;;;;;;5093906;28;20047;-87
2022/09/08 06:29:54;;;;;;;6.88;3.25;;;18.30;99.90;;;;;;5075928;28;20569;-88
2022/09/08 06:32:28;;;;;;;5.75;3.65;;;18.40;99.90;;;;;;5093702;28;20458;-86
2022/09/08 06:35:10;;;;;;;6.85;3.75;;;18.40;99.90;;;;;;5075663;28;20028;-88
2022/09/08 06:37:42;;;;;;;6.13;3.72;;;18.40;99.90;;;;;;5074830;28;20088;-88
2022/09/08 06:40:17;;;;;;;6.50;4.00;;;18.40;99.90;;;;;;5094006;28;20107;-88
2022/09/08 06:43:14;;;;;;;6.30;4.32;;;18.40;99.90;;;;;;5093531;28;20034;-85
2022/09/08 06:45:44;;;;;;;4.82;4.30;;;18.40;99.90;;;;;;5093882;28;20020;-85
2022/09/08 06:48:30;;;;;;;6.90;4.03;;;18.50;99.90;;;;;;5093809;28;20116;-84
2022/09/08 06:50:59;;;;;;;5.50;3.80;;;18.40;99.90;;;;;;5093794;28;20020;-85
2022/09/08 06:53:32;;;;;;;5.72;3.92;;;18.30;99.90;;;;;;5093795;28;20472;-84
2022/09/08 06:56:09;;;;;;;11.45;4.38;;;18.50;99.90;;;;;;5093725;28;20020;-85
2022/09/08 06:58:36;;;;;;;8.75;4.40;;;18.60;99.90;;;;;;5093519;28;20036;-84
2022/09/08 07:01:20;;;;;;;7.57;3.80;;;18.60;99.90;;;;;;5093919;28;20044;-84
2022/09/08 07:04:08;;;;;;;6.45;3.58;;;18.60;99.90;;;;;;5093810;28;20495;-85
2022/09/08 07:07:07;;;;;;;7.25;3.38;;;18.60;99.90;;;;;;5093008;28;20380;-84
2022/09/08 07:09:43;;;;;;;5.43;3.30;;;18.80;99.90;;;;;;5093803;28;20020;-85
2022/09/08 07:12:15;;;;;;;7.70;3.42;;;18.90;99.90;;;;;;5093454;28;20161;-85
2022/09/08 07:15:07;;;;;;;5.15;3.00;;;19.00;99.90;;;;;;5093401;28;20099;-84
2022/09/08 07:17:33;;;;;;;6.00;3.30;;;19.10;99.90;;;;;;5093143;28;20537;-84
2022/09/08 07:19:59;;;;;;;4.75;3.20;;;19.10;99.90;;;;;;5093188;28;20520;-85
2022/09/08 07:22:36;;;;;;;5.47;2.92;;;19.00;99.90;;;;;;5092765;28;20071;-84
2022/09/08 07:25:21;;;;;;;4.32;3.28;;;19.10;99.90;;;;;;5093043;28;20028;-85
2022/09/08 07:27:54;;;;;;;3.55;3.05;;;19.00;99.90;;;;;;5074763;28;20031;-85
2022/09/08 07:30:20;;;;;;;8.32;2.95;;;19.10;99.90;;;;;;5092763;28;20051;-85
2022/09/08 07:32:55;;;;;;;3.50;2.53;;;19.50;99.90;;;;;;5071523;28;20071;-85
2022/09/08 07:35:40;;;;;;;3.60;2.85;;;19.20;99.90;;;;;;5072712;28;20029;-85
2022/09/08 07:38:36;;;;;;;3.83;2.75;;;19.30;99.90;;;;;;5072812;28;20021;-85
2022/09/08 07:41:05;;;;;;;4.20;2.20;;;19.30;99.90;;;;;;5064769;28;20045;-85
2022/09/08 07:43:31;;;;;;;5.60;2.70;;;18.90;99.90;;;;;;5072526;28;20096;-84
2022/09/08 07:46:21;;;;;;;7.93;2.88;;;18.80;99.90;;;;;;5072456;28;20083;-85
2022/09/08 07:49:08;;;;;;;3.55;2.25;;;18.80;99.90;;;;;;5072321;28;20026;-85
2022/09/08 07:51:46;;;;;;;5.53;2.03;;;18.60;99.90;;;;;;5072354;28;20289;-85
2022/09/08 07:54:35;;;;;;;4.88;2.30;;;19.30;99.90;;;;;;5072378;28;20028;-85
2022/09/08 07:57:16;;;;;;;4.20;2.20;;;19.80;99.90;;;;;;5072710;28;20128;-85
2022/09/08 07:59:53;;;;;;;3.60;2.00;;;20.10;99.90;;;;;;5072209;28;20025;-86
2022/09/08 08:02:25;;;;;;;3.60;1.75;;;20.00;99.90;;;;;;5070996;28;20032;-85
2022/09/08 08:04:56;;;;;;;5.57;2.63;;;19.90;99.90;;;;;;5071841;28;20078;-85
2022/09/08 08:07:33;;;;;;;5.15;1.65;;;20.00;99.90;;;;;;5072430;28;20048;-85
2022/09/08 08:10:01;;;;;;;4.55;1.88;;;20.00;99.90;;;;;;5072234;28;20536;-85
2022/09/08 08:12:44;;;;;;;2.42;1.70;;;20.30;99.90;;;;;;5072199;28;20392;-85
2022/09/08 08:15:46;;;;;;;4.20;1.85;;;20.50;99.90;;;;;;5072090;28;20025;-85
2022/09/08 08:18:30;;;;;;;3.50;1.45;;;20.70;99.90;;;;;;5010229;28;20117;-86
2022/09/08 08:21:03;;;;;;;5.10;1.77;;;20.90;26.70;;;;;;5009689;28;20440;-85
2022/09/08 08:23:48;;;;;;;3.67;1.48;;;20.90;1.00;;;;;;5010750;28;20417;-85
2022/09/08 08:26:32;;;;;;;4.28;1.58;;;21.00;1.00;;;;;;5010339;28;20401;-86
2022/09/08 08:29:30;;;;;;;5.93;1.73;;;21.10;1.00;;;;;;5010622;28;20038;-85
2022/09/08 08:32:12;;;;;;;2.75;1.30;;;21.20;1.00;;;;;;4990405;28;20061;-85
2022/09/08 08:35:07;;;;;;;4.65;1.40;;;21.20;1.00;;;;;;4990024;28;20037;-85
2022/09/08 08:37:38;;;;;;;2.55;1.05;;;21.10;1.00;;;;;;4932524;29;20083;-85
2022/09/08 08:40:34;;;;;;;3.33;1.23;;;21.10;1.00;;;;;;4932746;29;20115;-85
2022/09/08 08:43:36;;;;;;;4.47;1.40;;;21.40;1.00;;;;;;4919981;29;20068;-85
2022/09/08 08:46:39;;;;;;;2.15;1.20;;;21.60;1.00;;;;;;4932632;29;20024;-85
2022/09/08 08:49:36;;;;;;;3.72;1.48;;;21.70;1.00;;;;;;4932300;29;20035;-85
2022/09/08 08:52:38;;;;;;;3.17;1.17;;;21.90;1.00;;;;;;4933011;29;20338;-85
2022/09/08 08:55:29;;;;;;;3.30;1.15;;;22.00;1.00;;;;;;5010017;28;20053;-83
2022/09/08 08:58:06;;;;;;;4.10;1.25;;;21.90;1.00;;;;;;5010090;28;20482;-83
2022/09/08 09:00:54;;;;;;;3.80;1.30;;;21.80;1.00;;;;;;5013080;28;20072;-82
2022/09/08 09:03:46;;;;;;;3.90;1.38;;;22.10;1.00;;;;;;5013389;28;20108;-83
2022/09/08 09:06:28;;;;;;;2.22;1.25;;;22.30;1.00;;;;;;5013803;28;20429;-84
2022/09/08 09:09:31;;;;;;;2.33;0.98;;;22.50;1.00;;;;;;5013598;28;20053;-84
2022/09/08 09:12:22;;;;;;;2.00;1.10;;;22.70;1.00;;;;;;5014015;28;20045;-84
2022/09/08 09:15:19;;;;;;;2.55;1.10;;;22.70;1.00;;;;;;5038322;28;20043;-84
2022/09/08 09:17:57;;;;;;;1.85;0.90;;;22.80;1.00;;;;;;5054637;28;20053;-84
2022/09/08 09:20:50;;;;;;;3.20;1.17;;;22.90;1.00;;;;;;5055690;28;20032;-84
2022/09/08 09:23:31;;;;;;;2.05;0.90;;;23.00;1.00;;;;;;5055175;28;20025;-84
2022/09/08 09:26:02;;;;;;;4.72;1.10;;;23.10;1.00;;;;;;5055430;28;20051;-84
2022/09/08 09:28:55;;;;;;;1.50;1.00;;;23.30;1.00;;;;;;5055199;28;20021;-84
2022/09/08 09:31:35;;;;;;;4.65;1.00;;;23.30;99.90;;;;;;5082171;28;20051;-84
2022/09/08 09:34:51;;;;;;;1.13;0.80;;;23.50;99.90;;;;;;5095545;28;20080;-84
2022/09/08 09:37:55;;;;;;;3.17;1.30;;;23.70;99.90;;;;;;5012931;28;20034;-84
2022/09/08 09:40:43;;;;;;;2.38;0.90;;;24.70;99.90;;;;;;4954520;29;20035;-84
2022/09/08 09:43:40;;;;;;;2.92;1.10;;;30.00;99.90;;;;;;4954724;29;20126;-84
2022/09/08 09:46:27;;;;;;;3.00;1.10;;;35.00;99.90;;;;;;4954171;28;20118;-84
2022/09/08 09:49:01;;;;;;;2.10;0.90;;;37.90;99.90;;;;;;4954450;29;20035;-83
2022/09/08 09:52:06;;;;;;;3.10;1.08;;;39.20;99.90;;;;;;4954428;29;20162;-84
2022/09/08 09:54:46;;;;;;;2.17;0.98;;;39.50;99.90;;;;;;4947473;28;20039;-85
2022/09/08 09:57:33;;;;;;;2.65;1.00;;;40.70;99.90;;;;;;4954669;29;20661;-84
2022/09/08 10:00:23;;;;;;;2.15;0.98;;;39.70;99.90;;;;;;4954618;29;20074;-84
2022/09/08 10:03:26;;;;;;;1.95;1.10;;;40.10;99.90;;;;;;4954294;29;20555;-84
2022/09/08 10:06:28;;;;;;;2.55;1.10;;;41.10;99.90;;;;;;4954119;29;20118;-85
2022/09/08 10:09:15;;;;;;;2.03;1.00;;;40.50;99.90;;;;;;4954244;29;20070;-85
2022/09/08 10:12:05;;;;;;;2.05;0.95;;;42.00;99.90;;;;;;4953742;28;20027;-84
2022/09/08 10:14:51;;;;;;;1.80;1.00;;;41.70;99.90;;;;;;5012283;28;20147;-84
2022/09/08 10:17:35;;;;;;;3.63;1.20;;;41.90;99.90;;;;;;5094262;28;20446;-84
2022/09/08 10:20:54;;;;;;;2.47;1.02;;;42.90;99.90;;;;;;5094354;28;20046;-85
2022/09/08 10:24:07;;;;;;;2.53;1.10;;;43.40;99.90;;;;;;4992860;28;20030;-85
2022/09/08 10:26:54;;;;;;;2.42;1.05;;;43.30;99.90;;;;;;4986074;28;20645;-85
2022/09/08 10:29:33;;;;;;;1.90;0.90;;;43.80;99.90;;;;;;4992421;28;20034;-85
2022/09/08 10:32:36;;;;;;;2.25;0.90;;;43.90;99.90;;;;;;4992439;28;20051;-85
2022/09/08 10:35:23;;;;;;;1.98;0.70;;;43.90;99.90;;;;;;4992108;28;20042;-85
2022/09/08 10:38:09;;;;;;;3.13;1.20;;;42.60;99.90;;;;;;4992522;28;20037;-85
2022/09/08 10:40:56;;;;;;;2.58;0.90;;;42.60;99.90;;;;;;4992366;28;20039;-85
2022/09/08 10:43:37;;;;;;;3.15;1.27;;;41.70;99.90;;;;;;4992357;28;20050;-85
2022/09/08 10:46:30;;;;;;;3.63;1.20;;;42.80;99.90;;;;;;4992209;28;20048;-85
2022/09/08 10:49:30;;;;;;;3.17;0.98;;;43.20;99.90;;;;;;4992425;28;20026;-85
2022/09/08 10:52:16;;;;;;;2.25;0.93;;;42.00;99.90;;;;;;4992591;28;20061;-85
2022/09/08 10:55:03;;;;;;;1.67;0.90;;;42.30;99.90;;;;;;5060306;28;20040;-85
2022/09/08 10:57:56;;;;;;;4.15;0.93;;;42.60;99.90;;;;;;5073458;28;20025;-85
2022/09/08 11:00:23;;;;;;;1.80;1.00;;;42.70;99.90;;;;;;5072900;28;20039;-85
2022/09/08 11:03:13;;;;;;;2.05;0.80;;;43.50;99.90;;;;;;5072069;28;20033;-85
2022/09/08 11:05:48;;;;;;;1.73;1.00;;;42.80;99.90;;;;;;5073273;28;20024;-85
2022/09/08 11:08:30;;;;;;;3.53;1.00;;;44.10;99.90;;;;;;5073433;28;20392;-85
2022/09/08 11:10:58;;;;;;;3.10;1.17;;;44.70;99.90;;;;;;5073495;28;20031;-85
2022/09/08 11:13:33;;;;;;;1.65;0.90;;;44.40;99.90;;;;;;5072892;28;20024;-85
2022/09/08 11:16:35;;;;;;;2.75;1.30;;;45.00;99.90;;;;;;5080503;28;20107;-85
2022/09/08 11:19:01;;;;;;;1.77;1.00;;;44.70;99.90;;;;;;5093142;28;20035;-85
2022/09/08 11:21:36;;;;;;;1.88;0.88;;;44.30;99.90;;;;;;5092799;28;20036;-85
2022/09/08 11:24:14;;;;;;;2.47;1.00;;;43.90;99.90;;;;;;5093122;28;20150;-85
2022/09/08 11:27:00;;;;;;;1.48;0.75;;;44.60;99.90;;;;;;5093149;28;20028;-85
2022/09/08 11:29:58;;;;;;;2.13;1.20;;;44.30;99.90;;;;;;5093177;28;20503;-85
2022/09/08 11:32:33;;;;;;;2.05;1.17;;;45.30;99.90;;;;;;5092778;28;20047;-85
2022/09/08 11:35:31;;;;;;;2.03;0.90;;;46.80;99.90;;;;;;5093022;28;20016;-85
2022/09/08 11:38:28;;;;;;;3.33;1.13;;;47.10;99.90;;;;;;5092985;28;20035;-85
2022/09/08 11:41:12;;;;;;;2.35;1.15;;;46.30;99.90;;;;;;5092680;28;20032;-85
2022/09/08 11:44:07;;;;;;;2.55;1.00;;;46.90;99.90;;;;;;5092854;28;20021;-85
2022/09/08 11:46:57;;;;;;;2.38;1.20;;;47.10;99.90;;;;;;5092965;28;20054;-85
2022/09/08 11:49:36;;;;;;;2.13;1.13;;;46.30;99.90;;;;;;5093078;28;20380;-84
2022/09/08 11:52:43;;;;;;;2.13;1.17;;;47.00;99.90;;;;;;5091782;28;20028;-87
2022/09/08 11:55:45;;;;;;;1.55;0.82;;;45.10;99.90;;;;;;5090785;28;20039;-86
2022/09/08 11:58:35;;;;;;;1.73;1.00;;;45.60;99.90;;;;;;5091961;28;20023;-86
2022/09/08 12:01:43;;;;;;;0.95;0.63;;;45.80;99.90;;;;;;5083944;28;20055;-86
2022/09/08 12:04:20;;;;;;;2.05;0.90;;;46.80;99.90;;;;;;5000776;28;20026;-85
2022/09/08 12:07:04;;;;;;;1.08;0.90;;;47.00;99.90;;;;;;4990955;28;20438;-85
2022/09/08 12:10:12;;;;;;;2.65;0.90;;;47.20;99.90;;;;;;4990834;28;20030;-85
2022/09/08 12:13:04;;;;;;;2.65;1.00;;;47.20;99.90;;;;;;4990991;28;20038;-85
2022/09/08 12:15:39;;;;;;;2.13;0.80;;;46.60;99.90;;;;;;4990310;28;20465;-85
2022/09/08 12:18:11;;;;;;;2.22;0.90;;;42.10;99.90;;;;;;4990695;28;20030;-85
2022/09/08 12:21:14;;;;;;;1.00;0.82;;;44.40;99.90;;;;;;4991001;28;20403;-85
2022/09/08 12:23:53;;;;;;;2.70;1.10;;;45.20;99.90;;;;;;4914158;29;20044;-85
2022/09/08 12:26:25;;;;;;;3.40;1.10;;;45.70;99.90;;;;;;4913332;29;20040;-85
2022/09/08 12:29:15;;;;;;;1.75;0.70;;;43.50;99.90;;;;;;4913902;29;20034;-85
2022/09/08 12:31:56;;;;;;;1.77;0.98;;;40.30;99.90;;;;;;4913487;29;20638;-85
2022/09/08 12:34:37;;;;;;;1.20;0.80;;;38.10;99.90;;;;;;4917311;29;20071;-85
2022/09/08 12:37:32;;;;;;;1.85;0.90;;;35.70;99.90;;;;;;4927164;28;20029;-85
2022/09/08 12:40:45;;;;;;;1.90;0.77;;;34.50;99.90;;;;;;5014293;28;20057;-85
2022/09/08 12:43:25;;;;;;;1.35;0.73;;;35.00;99.90;;;;;;4974877;28;20054;-85
2022/09/08 12:46:14;;;;;;;2.05;0.82;;;38.00;99.90;;;;;;4974737;28;20500;-85
2022/09/08 12:49:10;;;;;;;3.08;1.10;;;41.90;99.90;;;;;;4975365;28;20030;-85
2022/09/08 12:51:38;;;;;;;1.85;1.00;;;41.80;99.90;;;;;;4974792;28;20054;-84
2022/09/08 12:54:08;;;;;;;1.38;0.90;;;41.70;99.90;;;;;;4974890;28;20304;-85
2022/09/08 12:56:43;;;;;;;2.92;1.02;;;40.10;99.90;;;;;;4974658;28;20035;-85
2022/09/08 12:59:35;;;;;;;1.15;1.00;;;38.10;99.90;;;;;;5002864;28;20525;-85
2022/09/08 13:02:13;;;;;;;2.17;0.80;;;35.80;99.90;;;;;;5033907;28;20111;-85
2022/09/08 13:05:05;;;;;;;2.85;1.10;;;33.90;99.90;;;;;;5033354;28;20383;-85
2022/09/08 13:07:52;;;;;;;2.90;1.00;;;33.60;99.90;;;;;;5033844;28;20033;-85
2022/09/08 13:10:26;;;;;;;2.70;1.00;;;35.60;99.90;;;;;;5032939;28;20087;-84
2022/09/08 13:13:06;;;;;;;2.35;1.10;;;36.60;99.90;;;;;;5033301;28;20033;-85
2022/09/08 13:15:51;;;;;;;1.30;0.60;;;36.40;99.90;;;;;;5036890;28;20107;-85
2022/09/08 13:18:29;;;;;;;3.28;0.75;;;35.40;99.90;;;;;;5056502;28;20401;-85
2022/09/08 13:21:17;;;;;;;1.48;0.80;;;34.30;99.90;;;;;;5095987;28;20036;-84
2022/09/08 13:23:48;;;;;;;2.53;1.00;;;34.10;99.90;;;;;;5095164;28;20024;-85
2022/09/08 13:26:33;;;;;;;2.05;1.00;;;33.20;99.90;;;;;;5095475;28;20047;-85
2022/09/08 13:29:49;;;;;;;3.47;0.85;;;33.30;99.90;;;;;;5095385;28;20511;-84
2022/09/08 13:32:51;;;;;;;1.65;1.13;;;32.40;99.90;;;;;;4993742;28;20049;-85
2022/09/08 13:35:59;;;;;;;2.83;1.02;;;32.50;99.90;;;;;;4993523;28;20038;-85
2022/09/08 13:38:43;;;;;;;1.95;0.90;;;32.90;99.90;;;;;;4993202;28;20026;-85
2022/09/08 13:41:15;;;;;;;1.65;0.68;;;33.00;99.90;;;;;;4993283;28;20046;-84